sensor_id;sensor_type;location;lat;lon;timestamp;P1;durP1;ratioP1;P2;durP2;ratioP2
11078;SDS011;5592;49.234;7.268;2024-01-11T00:01:46;28.73;;;14.53;;
11078;SDS011;5592;49.234;7.268;2024-01-11T00:04:12;30.17;;;12.90;;
11078;SDS011;5592;49.234;7.268;2024-01-11T00:06:44;26.90;;;12.33;;
11078;SDS011;5592;49.234;7.268;2024-01-11T00:09:10;27.50;;;11.83;;
11078;SDS011;5592;49.234;7.268;2024-01-11T00:11:35;23.77;;;12.27;;
11078;SDS011;5592;49.234;7.268;2024-01-11T00:14:01;25.93;;;12.37;;
11078;SDS011;5592;49.234;7.268;2024-01-11T00:16:27;25.40;;;13.27;;
11078;SDS011;5592;49.234;7.268;2024-01-11T00:18:52;29.40;;;12.57;;
11078;SDS011;5592;49.234;7.268;2024-01-11T00:21:18;29.03;;;12.57;;
11078;SDS011;5592;49.234;7.268;2024-01-11T00:23:43;32.30;;;13.43;;
11078;SDS011;5592;49.234;7.268;2024-01-11T00:26:11;29.97;;;13.33;;
11078;SDS011;5592;49.234;7.268;2024-01-11T00:28:37;26.17;;;12.50;;
11078;SDS011;5592;49.234;7.268;2024-01-11T00:31:03;26.57;;;12.07;;
11078;SDS011;5592;49.234;7.268;2024-01-11T00:33:29;26.97;;;12.20;;
11078;SDS011;5592;49.234;7.268;2024-01-11T00:35:55;29.60;;;13.20;;
11078;SDS011;5592;49.234;7.268;2024-01-11T00:38:20;26.03;;;11.83;;
11078;SDS011;5592;49.234;7.268;2024-01-11T00:40:46;27.27;;;13.50;;
11078;SDS011;5592;49.234;7.268;2024-01-11T00:43:11;28.00;;;12.23;;
11078;SDS011;5592;49.234;7.268;2024-01-11T00:45:37;26.83;;;13.23;;
11078;SDS011;5592;49.234;7.268;2024-01-11T00:48:03;27.70;;;12.00;;
11078;SDS011;5592;49.234;7.268;2024-01-11T00:50:29;30.80;;;14.67;;
11078;SDS011;5592;49.234;7.268;2024-01-11T00:52:55;28.60;;;12.27;;
11078;SDS011;5592;49.234;7.268;2024-01-11T00:55:20;31.73;;;12.97;;
11078;SDS011;5592;49.234;7.268;2024-01-11T00:57:46;33.80;;;13.57;;
11078;SDS011;5592;49.234;7.268;2024-01-11T01:00:14;25.53;;;12.53;;
11078;SDS011;5592;49.234;7.268;2024-01-11T01:02:40;31.63;;;13.20;;
11078;SDS011;5592;49.234;7.268;2024-01-11T01:05:06;29.70;;;14.53;;
11078;SDS011;5592;49.234;7.268;2024-01-11T01:07:32;27.73;;;13.43;;
11078;SDS011;5592;49.234;7.268;2024-01-11T01:09:57;32.80;;;12.70;;
11078;SDS011;5592;49.234;7.268;2024-01-11T01:12:23;27.00;;;12.77;;
11078;SDS011;5592;49.234;7.268;2024-01-11T01:14:50;34.17;;;13.53;;
11078;SDS011;5592;49.234;7.268;2024-01-11T01:17:16;30.90;;;14.30;;
11078;SDS011;5592;49.234;7.268;2024-01-11T01:19:41;29.23;;;13.07;;
11078;SDS011;5592;49.234;7.268;2024-01-11T01:22:07;24.80;;;12.60;;
11078;SDS011;5592;49.234;7.268;2024-01-11T01:24:33;28.73;;;12.70;;
11078;SDS011;5592;49.234;7.268;2024-01-11T01:26:58;29.47;;;13.43;;
11078;SDS011;5592;49.234;7.268;2024-01-11T01:29:24;29.37;;;13.57;;
11078;SDS011;5592;49.234;7.268;2024-01-11T01:31:49;34.10;;;12.50;;
11078;SDS011;5592;49.234;7.268;2024-01-11T01:34:15;22.20;;;11.17;;
11078;SDS011;5592;49.234;7.268;2024-01-11T01:36:41;28.97;;;12.70;;
11078;SDS011;5592;49.234;7.268;2024-01-11T01:39:07;33.67;;;13.80;;
11078;SDS011;5592;49.234;7.268;2024-01-11T01:41:32;37.70;;;14.90;;
11078;SDS011;5592;49.234;7.268;2024-01-11T01:43:58;32.30;;;12.83;;
11078;SDS011;5592;49.234;7.268;2024-01-11T01:46:23;29.80;;;12.70;;
11078;SDS011;5592;49.234;7.268;2024-01-11T01:48:51;42.30;;;14.67;;
11078;SDS011;5592;49.234;7.268;2024-01-11T01:51:19;34.60;;;13.67;;
11078;SDS011;5592;49.234;7.268;2024-01-11T01:53:46;28.17;;;13.67;;
11078;SDS011;5592;49.234;7.268;2024-01-11T01:56:12;36.93;;;13.87;;
11078;SDS011;5592;49.234;7.268;2024-01-11T01:58:38;27.30;;;15.23;;
11078;SDS011;5592;49.234;7.268;2024-01-11T02:01:06;24.97;;;11.60;;
11078;SDS011;5592;49.234;7.268;2024-01-11T02:03:36;32.70;;;14.40;;
11078;SDS011;5592;49.234;7.268;2024-01-11T02:06:03;29.63;;;13.40;;
11078;SDS011;5592;49.234;7.268;2024-01-11T02:08:30;28.00;;;12.97;;
11078;SDS011;5592;49.234;7.268;2024-01-11T02:10:57;37.17;;;14.37;;
11078;SDS011;5592;49.234;7.268;2024-01-11T02:13:25;37.23;;;14.80;;
11078;SDS011;5592;49.234;7.268;2024-01-11T02:15:51;29.60;;;12.00;;
11078;SDS011;5592;49.234;7.268;2024-01-11T02:18:17;25.60;;;12.77;;
11078;SDS011;5592;49.234;7.268;2024-01-11T02:20:43;33.37;;;12.30;;
11078;SDS011;5592;49.234;7.268;2024-01-11T02:23:11;35.40;;;13.10;;
11078;SDS011;5592;49.234;7.268;2024-01-11T02:25:39;30.50;;;14.90;;
11078;SDS011;5592;49.234;7.268;2024-01-11T02:28:05;30.40;;;12.90;;
11078;SDS011;5592;49.234;7.268;2024-01-11T02:30:31;33.47;;;14.60;;
11078;SDS011;5592;49.234;7.268;2024-01-11T02:32:57;27.43;;;12.00;;
11078;SDS011;5592;49.234;7.268;2024-01-11T02:35:23;32.07;;;12.63;;
11078;SDS011;5592;49.234;7.268;2024-01-11T02:37:49;25.77;;;12.53;;
11078;SDS011;5592;49.234;7.268;2024-01-11T02:40:15;31.10;;;13.60;;
11078;SDS011;5592;49.234;7.268;2024-01-11T02:42:41;33.53;;;12.40;;
11078;SDS011;5592;49.234;7.268;2024-01-11T02:45:06;30.00;;;13.47;;
11078;SDS011;5592;49.234;7.268;2024-01-11T02:47:32;29.27;;;13.77;;
11078;SDS011;5592;49.234;7.268;2024-01-11T02:49:58;35.50;;;14.33;;
11078;SDS011;5592;49.234;7.268;2024-01-11T02:52:23;42.60;;;15.43;;
11078;SDS011;5592;49.234;7.268;2024-01-11T02:54:49;31.47;;;13.97;;
11078;SDS011;5592;49.234;7.268;2024-01-11T02:57:14;26.50;;;12.00;;
11078;SDS011;5592;49.234;7.268;2024-01-11T02:59:40;34.43;;;13.90;;
11078;SDS011;5592;49.234;7.268;2024-01-11T03:02:10;28.57;;;12.87;;
11078;SDS011;5592;49.234;7.268;2024-01-11T03:04:35;37.13;;;15.03;;
11078;SDS011;5592;49.234;7.268;2024-01-11T03:07:01;47.20;;;13.43;;
11078;SDS011;5592;49.234;7.268;2024-01-11T03:09:26;41.03;;;14.97;;
11078;SDS011;5592;49.234;7.268;2024-01-11T03:11:52;27.33;;;13.57;;
11078;SDS011;5592;49.234;7.268;2024-01-11T03:14:17;32.73;;;12.97;;
11078;SDS011;5592;49.234;7.268;2024-01-11T03:16:43;41.77;;;14.37;;
11078;SDS011;5592;49.234;7.268;2024-01-11T03:19:08;33.37;;;13.90;;
11078;SDS011;5592;49.234;7.268;2024-01-11T03:21:34;28.57;;;12.03;;
11078;SDS011;5592;49.234;7.268;2024-01-11T03:23:59;33.10;;;13.70;;
11078;SDS011;5592;49.234;7.268;2024-01-11T03:26:25;35.60;;;14.03;;
11078;SDS011;5592;49.234;7.268;2024-01-11T03:28:50;28.87;;;13.50;;
11078;SDS011;5592;49.234;7.268;2024-01-11T03:31:16;39.20;;;15.10;;
11078;SDS011;5592;49.234;7.268;2024-01-11T03:33:42;36.37;;;13.50;;
11078;SDS011;5592;49.234;7.268;2024-01-11T03:36:08;35.50;;;14.90;;
11078;SDS011;5592;49.234;7.268;2024-01-11T03:38:34;29.40;;;14.20;;
11078;SDS011;5592;49.234;7.268;2024-01-11T03:41:00;30.70;;;14.00;;
11078;SDS011;5592;49.234;7.268;2024-01-11T03:43:25;29.47;;;14.10;;
11078;SDS011;5592;49.234;7.268;2024-01-11T03:45:51;28.63;;;13.90;;
11078;SDS011;5592;49.234;7.268;2024-01-11T03:48:16;29.80;;;14.00;;
11078;SDS011;5592;49.234;7.268;2024-01-11T03:50:42;25.40;;;12.03;;
11078;SDS011;5592;49.234;7.268;2024-01-11T03:53:07;30.77;;;13.83;;
11078;SDS011;5592;49.234;7.268;2024-01-11T03:55:33;32.83;;;12.67;;
11078;SDS011;5592;49.234;7.268;2024-01-11T03:57:59;33.73;;;13.50;;
11078;SDS011;5592;49.234;7.268;2024-01-11T04:00:24;33.87;;;14.40;;
11078;SDS011;5592;49.234;7.268;2024-01-11T04:02:50;31.17;;;13.67;;
11078;SDS011;5592;49.234;7.268;2024-01-11T04:05:15;29.20;;;13.17;;
11078;SDS011;5592;49.234;7.268;2024-01-11T04:07:41;33.03;;;14.73;;
11078;SDS011;5592;49.234;7.268;2024-01-11T04:10:07;33.40;;;13.87;;
11078;SDS011;5592;49.234;7.268;2024-01-11T04:12:35;28.20;;;13.70;;
11078;SDS011;5592;49.234;7.268;2024-01-11T04:15:01;31.60;;;13.27;;
11078;SDS011;5592;49.234;7.268;2024-01-11T04:17:26;26.40;;;13.87;;
11078;SDS011;5592;49.234;7.268;2024-01-11T04:19:52;33.37;;;13.43;;
11078;SDS011;5592;49.234;7.268;2024-01-11T04:22:17;33.40;;;14.17;;
11078;SDS011;5592;49.234;7.268;2024-01-11T04:24:43;31.93;;;14.47;;
11078;SDS011;5592;49.234;7.268;2024-01-11T04:27:09;29.47;;;15.23;;
11078;SDS011;5592;49.234;7.268;2024-01-11T04:29:34;34.13;;;14.37;;
11078;SDS011;5592;49.234;7.268;2024-01-11T04:32:00;31.50;;;14.23;;
11078;SDS011;5592;49.234;7.268;2024-01-11T04:34:26;32.43;;;14.90;;
11078;SDS011;5592;49.234;7.268;2024-01-11T04:36:52;33.93;;;16.20;;
11078;SDS011;5592;49.234;7.268;2024-01-11T04:39:17;42.43;;;14.10;;
11078;SDS011;5592;49.234;7.268;2024-01-11T04:41:43;31.80;;;14.23;;
11078;SDS011;5592;49.234;7.268;2024-01-11T04:44:08;31.70;;;15.50;;
11078;SDS011;5592;49.234;7.268;2024-01-11T04:46:35;33.80;;;15.03;;
11078;SDS011;5592;49.234;7.268;2024-01-11T04:49:00;31.13;;;13.17;;
11078;SDS011;5592;49.234;7.268;2024-01-11T04:51:26;39.87;;;14.60;;
11078;SDS011;5592;49.234;7.268;2024-01-11T04:53:52;27.43;;;12.87;;
11078;SDS011;5592;49.234;7.268;2024-01-11T04:56:17;32.20;;;14.37;;
11078;SDS011;5592;49.234;7.268;2024-01-11T04:58:43;38.60;;;14.60;;
11078;SDS011;5592;49.234;7.268;2024-01-11T05:01:16;33.93;;;15.80;;
11078;SDS011;5592;49.234;7.268;2024-01-11T05:03:46;33.73;;;14.10;;
11078;SDS011;5592;49.234;7.268;2024-01-11T05:06:15;31.13;;;13.30;;
11078;SDS011;5592;49.234;7.268;2024-01-11T05:08:54;30.50;;;13.80;;
11078;SDS011;5592;49.234;7.268;2024-01-11T05:11:20;37.87;;;14.10;;
11078;SDS011;5592;49.234;7.268;2024-01-11T05:13:47;34.13;;;15.10;;
11078;SDS011;5592;49.234;7.268;2024-01-11T05:16:26;34.40;;;14.70;;
11078;SDS011;5592;49.234;7.268;2024-01-11T05:18:53;33.13;;;14.30;;
11078;SDS011;5592;49.234;7.268;2024-01-11T05:21:20;37.67;;;15.57;;
11078;SDS011;5592;49.234;7.268;2024-01-11T05:23:46;42.63;;;15.90;;
11078;SDS011;5592;49.234;7.268;2024-01-11T05:26:12;36.23;;;14.43;;
11078;SDS011;5592;49.234;7.268;2024-01-11T05:28:39;34.17;;;14.60;;
11078;SDS011;5592;49.234;7.268;2024-01-11T05:31:05;28.33;;;13.73;;
11078;SDS011;5592;49.234;7.268;2024-01-11T05:33:38;34.53;;;13.27;;
11078;SDS011;5592;49.234;7.268;2024-01-11T05:36:04;27.67;;;12.60;;
11078;SDS011;5592;49.234;7.268;2024-01-11T05:38:30;36.13;;;15.30;;
11078;SDS011;5592;49.234;7.268;2024-01-11T05:40:56;33.37;;;14.50;;
11078;SDS011;5592;49.234;7.268;2024-01-11T05:43:22;29.63;;;14.03;;
11078;SDS011;5592;49.234;7.268;2024-01-11T05:45:48;30.50;;;14.10;;
11078;SDS011;5592;49.234;7.268;2024-01-11T05:48:14;41.17;;;15.90;;
11078;SDS011;5592;49.234;7.268;2024-01-11T05:50:40;40.07;;;15.50;;
11078;SDS011;5592;49.234;7.268;2024-01-11T05:53:06;29.13;;;14.47;;
11078;SDS011;5592;49.234;7.268;2024-01-11T05:55:32;31.03;;;14.03;;
11078;SDS011;5592;49.234;7.268;2024-01-11T05:58:01;25.97;;;12.77;;
11078;SDS011;5592;49.234;7.268;2024-01-11T06:00:26;36.80;;;15.10;;
11078;SDS011;5592;49.234;7.268;2024-01-11T06:02:52;30.43;;;12.03;;
11078;SDS011;5592;49.234;7.268;2024-01-11T06:05:19;33.47;;;15.87;;
11078;SDS011;5592;49.234;7.268;2024-01-11T06:07:45;25.60;;;12.43;;
11078;SDS011;5592;49.234;7.268;2024-01-11T06:10:10;33.37;;;14.50;;
11078;SDS011;5592;49.234;7.268;2024-01-11T06:12:36;37.33;;;15.23;;
11078;SDS011;5592;49.234;7.268;2024-01-11T06:15:02;32.00;;;13.53;;
11078;SDS011;5592;49.234;7.268;2024-01-11T06:17:28;43.80;;;16.33;;
11078;SDS011;5592;49.234;7.268;2024-01-11T06:19:53;38.40;;;15.13;;
11078;SDS011;5592;49.234;7.268;2024-01-11T06:22:20;38.97;;;16.83;;
11078;SDS011;5592;49.234;7.268;2024-01-11T06:24:45;39.17;;;17.20;;
11078;SDS011;5592;49.234;7.268;2024-01-11T06:27:11;38.33;;;15.97;;
11078;SDS011;5592;49.234;7.268;2024-01-11T06:29:36;36.33;;;15.30;;
11078;SDS011;5592;49.234;7.268;2024-01-11T06:32:02;32.60;;;14.57;;
11078;SDS011;5592;49.234;7.268;2024-01-11T06:34:28;24.90;;;14.60;;
11078;SDS011;5592;49.234;7.268;2024-01-11T06:36:54;33.90;;;15.70;;
11078;SDS011;5592;49.234;7.268;2024-01-11T06:39:20;32.93;;;14.57;;
11078;SDS011;5592;49.234;7.268;2024-01-11T06:41:47;35.97;;;15.73;;
11078;SDS011;5592;49.234;7.268;2024-01-11T06:44:12;32.60;;;15.40;;
11078;SDS011;5592;49.234;7.268;2024-01-11T06:46:38;35.63;;;15.73;;
11078;SDS011;5592;49.234;7.268;2024-01-11T06:49:06;40.33;;;16.10;;
11078;SDS011;5592;49.234;7.268;2024-01-11T06:51:32;37.90;;;15.33;;
11078;SDS011;5592;49.234;7.268;2024-01-11T06:53:59;34.13;;;16.13;;
11078;SDS011;5592;49.234;7.268;2024-01-11T06:56:26;35.67;;;14.60;;
11078;SDS011;5592;49.234;7.268;2024-01-11T06:58:52;32.77;;;14.67;;
11078;SDS011;5592;49.234;7.268;2024-01-11T07:01:18;42.30;;;14.20;;
11078;SDS011;5592;49.234;7.268;2024-01-11T07:03:43;39.90;;;16.43;;
11078;SDS011;5592;49.234;7.268;2024-01-11T07:06:16;38.67;;;13.80;;
11078;SDS011;5592;49.234;7.268;2024-01-11T07:08:42;36.10;;;15.80;;
11078;SDS011;5592;49.234;7.268;2024-01-11T07:11:07;42.57;;;16.30;;
11078;SDS011;5592;49.234;7.268;2024-01-11T07:13:33;35.50;;;15.20;;
11078;SDS011;5592;49.234;7.268;2024-01-11T07:15:59;36.67;;;13.53;;
11078;SDS011;5592;49.234;7.268;2024-01-11T07:18:25;36.27;;;16.17;;
11078;SDS011;5592;49.234;7.268;2024-01-11T07:20:51;43.40;;;15.40;;
11078;SDS011;5592;49.234;7.268;2024-01-11T07:23:21;36.17;;;15.97;;
11078;SDS011;5592;49.234;7.268;2024-01-11T07:25:47;31.93;;;15.50;;
11078;SDS011;5592;49.234;7.268;2024-01-11T07:28:12;38.50;;;16.10;;
11078;SDS011;5592;49.234;7.268;2024-01-11T07:30:38;30.93;;;15.60;;
11078;SDS011;5592;49.234;7.268;2024-01-11T07:33:07;35.03;;;15.60;;
11078;SDS011;5592;49.234;7.268;2024-01-11T07:35:34;31.20;;;14.30;;
11078;SDS011;5592;49.234;7.268;2024-01-11T07:37:59;33.83;;;15.27;;
11078;SDS011;5592;49.234;7.268;2024-01-11T07:40:25;32.80;;;16.53;;
11078;SDS011;5592;49.234;7.268;2024-01-11T07:42:51;40.50;;;16.10;;
11078;SDS011;5592;49.234;7.268;2024-01-11T07:45:19;35.60;;;16.30;;
11078;SDS011;5592;49.234;7.268;2024-01-11T07:48:05;39.07;;;15.53;;
11078;SDS011;5592;49.234;7.268;2024-01-11T07:50:36;32.63;;;14.90;;
11078;SDS011;5592;49.234;7.268;2024-01-11T07:53:03;33.17;;;16.63;;
11078;SDS011;5592;49.234;7.268;2024-01-11T07:55:36;34.67;;;14.90;;
11078;SDS011;5592;49.234;7.268;2024-01-11T07:58:12;41.17;;;16.50;;
11078;SDS011;5592;49.234;7.268;2024-01-11T08:00:38;32.77;;;15.27;;
11078;SDS011;5592;49.234;7.268;2024-01-11T08:03:04;37.47;;;15.00;;
11078;SDS011;5592;49.234;7.268;2024-01-11T08:05:29;32.83;;;14.77;;
11078;SDS011;5592;49.234;7.268;2024-01-11T08:07:55;36.27;;;17.17;;
11078;SDS011;5592;49.234;7.268;2024-01-11T08:10:20;45.57;;;16.60;;
11078;SDS011;5592;49.234;7.268;2024-01-11T08:12:46;41.43;;;17.27;;
11078;SDS011;5592;49.234;7.268;2024-01-11T08:15:12;47.23;;;17.83;;
11078;SDS011;5592;49.234;7.268;2024-01-11T08:17:38;42.73;;;19.07;;
11078;SDS011;5592;49.234;7.268;2024-01-11T08:20:05;40.77;;;18.40;;
11078;SDS011;5592;49.234;7.268;2024-01-11T08:22:33;38.73;;;17.87;;
11078;SDS011;5592;49.234;7.268;2024-01-11T08:25:01;37.33;;;17.57;;
11078;SDS011;5592;49.234;7.268;2024-01-11T08:27:29;31.80;;;16.27;;
11078;SDS011;5592;49.234;7.268;2024-01-11T08:29:56;36.13;;;16.70;;
11078;SDS011;5592;49.234;7.268;2024-01-11T08:32:23;30.67;;;13.73;;
11078;SDS011;5592;49.234;7.268;2024-01-11T08:34:48;27.13;;;14.83;;
11078;SDS011;5592;49.234;7.268;2024-01-11T08:37:17;36.37;;;15.30;;
11078;SDS011;5592;49.234;7.268;2024-01-11T08:39:45;28.17;;;13.73;;
11078;SDS011;5592;49.234;7.268;2024-01-11T08:42:14;30.40;;;15.47;;
11078;SDS011;5592;49.234;7.268;2024-01-11T08:44:41;28.27;;;14.57;;
11078;SDS011;5592;49.234;7.268;2024-01-11T08:47:09;30.80;;;14.60;;
11078;SDS011;5592;49.234;7.268;2024-01-11T08:49:38;27.83;;;14.63;;
11078;SDS011;5592;49.234;7.268;2024-01-11T08:52:08;28.77;;;15.80;;
11078;SDS011;5592;49.234;7.268;2024-01-11T08:54:37;30.83;;;14.93;;
11078;SDS011;5592;49.234;7.268;2024-01-11T08:57:03;27.53;;;16.07;;
11078;SDS011;5592;49.234;7.268;2024-01-11T08:59:28;28.87;;;15.70;;
11078;SDS011;5592;49.234;7.268;2024-01-11T09:01:54;28.43;;;15.40;;
11078;SDS011;5592;49.234;7.268;2024-01-11T09:04:20;29.93;;;16.90;;
11078;SDS011;5592;49.234;7.268;2024-01-11T09:06:47;26.73;;;14.27;;
11078;SDS011;5592;49.234;7.268;2024-01-11T09:09:14;32.97;;;17.23;;
11078;SDS011;5592;49.234;7.268;2024-01-11T09:11:40;29.53;;;15.43;;
11078;SDS011;5592;49.234;7.268;2024-01-11T09:14:06;30.03;;;15.00;;
11078;SDS011;5592;49.234;7.268;2024-01-11T09:16:32;26.30;;;15.93;;
11078;SDS011;5592;49.234;7.268;2024-01-11T09:18:58;28.03;;;15.70;;
11078;SDS011;5592;49.234;7.268;2024-01-11T09:21:38;26.63;;;15.37;;
11078;SDS011;5592;49.234;7.268;2024-01-11T09:24:08;25.80;;;15.87;;
11078;SDS011;5592;49.234;7.268;2024-01-11T09:26:38;26.37;;;15.60;;
11078;SDS011;5592;49.234;7.268;2024-01-11T09:29:06;34.30;;;16.43;;
11078;SDS011;5592;49.234;7.268;2024-01-11T09:31:31;30.87;;;17.07;;
11078;SDS011;5592;49.234;7.268;2024-01-11T09:34:00;28.13;;;15.77;;
11078;SDS011;5592;49.234;7.268;2024-01-11T09:36:26;28.87;;;15.90;;
11078;SDS011;5592;49.234;7.268;2024-01-11T09:38:51;26.63;;;14.57;;
11078;SDS011;5592;49.234;7.268;2024-01-11T09:41:17;28.53;;;16.07;;
11078;SDS011;5592;49.234;7.268;2024-01-11T09:43:43;25.60;;;16.67;;
11078;SDS011;5592;49.234;7.268;2024-01-11T09:46:10;30.20;;;16.00;;
11078;SDS011;5592;49.234;7.268;2024-01-11T09:48:39;30.80;;;16.47;;
11078;SDS011;5592;49.234;7.268;2024-01-11T09:51:09;28.07;;;16.47;;
11078;SDS011;5592;49.234;7.268;2024-01-11T09:53:37;25.07;;;15.67;;
11078;SDS011;5592;49.234;7.268;2024-01-11T09:56:05;26.10;;;14.93;;
11078;SDS011;5592;49.234;7.268;2024-01-11T09:58:33;30.77;;;17.00;;
11078;SDS011;5592;49.234;7.268;2024-01-11T10:01:03;29.03;;;15.60;;
11078;SDS011;5592;49.234;7.268;2024-01-11T10:03:34;25.20;;;15.80;;
11078;SDS011;5592;49.234;7.268;2024-01-11T10:05:59;26.73;;;16.30;;
11078;SDS011;5592;49.234;7.268;2024-01-11T10:08:27;27.83;;;16.43;;
11078;SDS011;5592;49.234;7.268;2024-01-11T10:10:54;26.63;;;15.87;;
11078;SDS011;5592;49.234;7.268;2024-01-11T10:13:25;33.63;;;16.13;;
11078;SDS011;5592;49.234;7.268;2024-01-11T10:16:11;31.53;;;17.23;;
11078;SDS011;5592;49.234;7.268;2024-01-11T10:18:43;27.60;;;16.07;;
11078;SDS011;5592;49.234;7.268;2024-01-11T10:21:10;25.07;;;15.40;;
11078;SDS011;5592;49.234;7.268;2024-01-11T10:23:36;27.30;;;15.20;;
11078;SDS011;5592;49.234;7.268;2024-01-11T10:26:02;26.97;;;15.23;;
11078;SDS011;5592;49.234;7.268;2024-01-11T10:28:28;25.77;;;14.70;;
11078;SDS011;5592;49.234;7.268;2024-01-11T10:30:54;28.07;;;15.00;;
11078;SDS011;5592;49.234;7.268;2024-01-11T10:33:20;30.60;;;15.73;;
11078;SDS011;5592;49.234;7.268;2024-01-11T10:35:48;28.50;;;16.03;;
11078;SDS011;5592;49.234;7.268;2024-01-11T10:38:15;29.83;;;14.67;;
11078;SDS011;5592;49.234;7.268;2024-01-11T10:40:41;31.10;;;15.70;;
11078;SDS011;5592;49.234;7.268;2024-01-11T10:43:08;26.23;;;15.20;;
11078;SDS011;5592;49.234;7.268;2024-01-11T10:45:40;27.67;;;15.30;;
11078;SDS011;5592;49.234;7.268;2024-01-11T10:48:13;23.73;;;14.40;;
11078;SDS011;5592;49.234;7.268;2024-01-11T10:50:46;31.97;;;16.00;;
11078;SDS011;5592;49.234;7.268;2024-01-11T10:56:11;27.33;;;14.57;;
11078;SDS011;5592;49.234;7.268;2024-01-11T10:58:39;30.37;;;16.20;;
11078;SDS011;5592;49.234;7.268;2024-01-11T11:01:06;28.33;;;15.13;;
11078;SDS011;5592;49.234;7.268;2024-01-11T11:03:33;30.50;;;14.67;;
11078;SDS011;5592;49.234;7.268;2024-01-11T11:05:59;28.30;;;16.20;;
11078;SDS011;5592;49.234;7.268;2024-01-11T11:08:34;28.27;;;14.90;;
11078;SDS011;5592;49.234;7.268;2024-01-11T11:11:02;26.50;;;14.33;;
11078;SDS011;5592;49.234;7.268;2024-01-11T11:13:32;28.10;;;15.40;;
11078;SDS011;5592;49.234;7.268;2024-01-11T11:16:00;27.90;;;15.50;;
11078;SDS011;5592;49.234;7.268;2024-01-11T11:18:25;34.20;;;17.13;;
11078;SDS011;5592;49.234;7.268;2024-01-11T11:20:51;24.80;;;14.07;;
11078;SDS011;5592;49.234;7.268;2024-01-11T11:23:19;28.50;;;15.00;;
11078;SDS011;5592;49.234;7.268;2024-01-11T11:25:45;25.30;;;14.17;;
11078;SDS011;5592;49.234;7.268;2024-01-11T11:28:12;22.50;;;13.60;;
11078;SDS011;5592;49.234;7.268;2024-01-11T11:30:41;29.57;;;15.43;;
11078;SDS011;5592;49.234;7.268;2024-01-11T11:33:10;24.70;;;14.70;;
11078;SDS011;5592;49.234;7.268;2024-01-11T11:35:40;31.97;;;15.07;;
11078;SDS011;5592;49.234;7.268;2024-01-11T11:38:06;32.60;;;16.60;;
11078;SDS011;5592;49.234;7.268;2024-01-11T11:40:38;28.27;;;16.40;;
11078;SDS011;5592;49.234;7.268;2024-01-11T11:43:08;28.70;;;14.87;;
11078;SDS011;5592;49.234;7.268;2024-01-11T11:45:34;36.77;;;14.60;;
11078;SDS011;5592;49.234;7.268;2024-01-11T11:48:00;23.67;;;14.63;;
11078;SDS011;5592;49.234;7.268;2024-01-11T11:50:26;26.17;;;15.60;;
11078;SDS011;5592;49.234;7.268;2024-01-11T11:52:55;29.43;;;15.37;;
11078;SDS011;5592;49.234;7.268;2024-01-11T11:55:24;30.00;;;15.27;;
11078;SDS011;5592;49.234;7.268;2024-01-11T11:57:50;31.77;;;15.10;;
11078;SDS011;5592;49.234;7.268;2024-01-11T12:00:18;30.83;;;14.47;;
11078;SDS011;5592;49.234;7.268;2024-01-11T12:02:46;29.63;;;15.60;;
11078;SDS011;5592;49.234;7.268;2024-01-11T12:05:12;32.97;;;14.43;;
11078;SDS011;5592;49.234;7.268;2024-01-11T12:07:38;26.20;;;14.53;;
11078;SDS011;5592;49.234;7.268;2024-01-11T12:10:05;29.67;;;14.40;;
11078;SDS011;5592;49.234;7.268;2024-01-11T12:12:31;32.93;;;15.60;;
11078;SDS011;5592;49.234;7.268;2024-01-11T12:14:59;26.23;;;14.73;;
11078;SDS011;5592;49.234;7.268;2024-01-11T12:17:25;30.47;;;14.83;;
11078;SDS011;5592;49.234;7.268;2024-01-11T12:19:51;33.70;;;14.10;;
11078;SDS011;5592;49.234;7.268;2024-01-11T12:22:17;31.20;;;14.10;;
11078;SDS011;5592;49.234;7.268;2024-01-11T12:24:44;29.23;;;14.00;;
11078;SDS011;5592;49.234;7.268;2024-01-11T12:27:10;28.53;;;13.20;;
11078;SDS011;5592;49.234;7.268;2024-01-11T12:29:38;33.63;;;14.23;;
11078;SDS011;5592;49.234;7.268;2024-01-11T12:32:04;26.87;;;13.87;;
11078;SDS011;5592;49.234;7.268;2024-01-11T12:34:30;25.33;;;12.80;;
11078;SDS011;5592;49.234;7.268;2024-01-11T12:36:57;28.20;;;14.40;;
11078;SDS011;5592;49.234;7.268;2024-01-11T12:39:25;24.83;;;13.50;;
11078;SDS011;5592;49.234;7.268;2024-01-11T12:41:52;27.40;;;14.03;;
11078;SDS011;5592;49.234;7.268;2024-01-11T12:44:21;28.40;;;14.50;;
11078;SDS011;5592;49.234;7.268;2024-01-11T12:46:48;24.83;;;13.90;;
11078;SDS011;5592;49.234;7.268;2024-01-11T12:49:17;28.93;;;15.77;;
11078;SDS011;5592;49.234;7.268;2024-01-11T12:51:43;26.77;;;14.60;;
11078;SDS011;5592;49.234;7.268;2024-01-11T12:54:12;27.43;;;15.57;;
11078;SDS011;5592;49.234;7.268;2024-01-11T12:56:42;25.90;;;13.00;;
11078;SDS011;5592;49.234;7.268;2024-01-11T12:59:08;27.53;;;13.30;;
11078;SDS011;5592;49.234;7.268;2024-01-11T13:01:39;25.20;;;13.93;;
11078;SDS011;5592;49.234;7.268;2024-01-11T13:04:05;24.80;;;12.93;;
11078;SDS011;5592;49.234;7.268;2024-01-11T13:06:33;22.87;;;13.73;;
11078;SDS011;5592;49.234;7.268;2024-01-11T13:09:02;27.43;;;13.47;;
11078;SDS011;5592;49.234;7.268;2024-01-11T13:11:29;30.20;;;14.10;;
11078;SDS011;5592;49.234;7.268;2024-01-11T13:13:55;25.73;;;13.00;;
11078;SDS011;5592;49.234;7.268;2024-01-11T13:16:22;25.23;;;12.60;;
11078;SDS011;5592;49.234;7.268;2024-01-11T13:18:49;27.13;;;13.40;;
11078;SDS011;5592;49.234;7.268;2024-01-11T13:21:15;30.37;;;14.77;;
11078;SDS011;5592;49.234;7.268;2024-01-11T13:23:41;26.27;;;12.97;;
11078;SDS011;5592;49.234;7.268;2024-01-11T13:26:07;24.43;;;13.10;;
11078;SDS011;5592;49.234;7.268;2024-01-11T13:28:33;24.53;;;12.93;;
11078;SDS011;5592;49.234;7.268;2024-01-11T13:30:59;32.97;;;14.53;;
11078;SDS011;5592;49.234;7.268;2024-01-11T13:33:27;28.53;;;13.93;;
11078;SDS011;5592;49.234;7.268;2024-01-11T13:35:52;27.50;;;13.03;;
11078;SDS011;5592;49.234;7.268;2024-01-11T13:38:19;26.70;;;12.90;;
11078;SDS011;5592;49.234;7.268;2024-01-11T13:40:44;24.30;;;12.87;;
11078;SDS011;5592;49.234;7.268;2024-01-11T13:43:10;28.77;;;13.57;;
11078;SDS011;5592;49.234;7.268;2024-01-11T13:45:35;27.77;;;12.60;;
11078;SDS011;5592;49.234;7.268;2024-01-11T13:48:02;24.90;;;12.40;;
11078;SDS011;5592;49.234;7.268;2024-01-11T13:50:31;24.27;;;11.33;;
11078;SDS011;5592;49.234;7.268;2024-01-11T13:52:57;24.83;;;12.50;;
11078;SDS011;5592;49.234;7.268;2024-01-11T13:55:23;25.30;;;12.83;;
11078;SDS011;5592;49.234;7.268;2024-01-11T13:57:49;22.17;;;11.90;;
11078;SDS011;5592;49.234;7.268;2024-01-11T14:00:16;25.63;;;11.83;;
11078;SDS011;5592;49.234;7.268;2024-01-11T14:02:43;26.50;;;12.80;;
11078;SDS011;5592;49.234;7.268;2024-01-11T14:05:10;25.67;;;13.43;;
11078;SDS011;5592;49.234;7.268;2024-01-11T14:07:39;24.73;;;12.97;;
11078;SDS011;5592;49.234;7.268;2024-01-11T14:10:05;24.97;;;13.10;;
11078;SDS011;5592;49.234;7.268;2024-01-11T14:12:33;29.80;;;13.50;;
11078;SDS011;5592;49.234;7.268;2024-01-11T14:15:01;24.27;;;12.90;;
11078;SDS011;5592;49.234;7.268;2024-01-11T14:17:27;22.67;;;12.20;;
11078;SDS011;5592;49.234;7.268;2024-01-11T14:19:53;35.60;;;14.50;;
11078;SDS011;5592;49.234;7.268;2024-01-11T14:22:18;22.37;;;11.70;;
11078;SDS011;5592;49.234;7.268;2024-01-11T14:24:44;20.83;;;11.30;;
11078;SDS011;5592;49.234;7.268;2024-01-11T14:27:10;26.37;;;12.57;;
11078;SDS011;5592;49.234;7.268;2024-01-11T14:29:36;22.13;;;10.83;;
11078;SDS011;5592;49.234;7.268;2024-01-11T14:32:01;21.13;;;11.70;;
11078;SDS011;5592;49.234;7.268;2024-01-11T14:34:27;23.70;;;12.10;;